createdAt,value
2023-03-20T00:02:04.369Z,10.47
2023-03-20T00:04:32.641Z,11.30
2023-03-20T00:07:00.661Z,10.70
2023-03-20T00:09:28.434Z,11.23
2023-03-20T00:11:57.053Z,11.93
2023-03-20T00:14:27.166Z,11.47
2023-03-20T00:16:54.896Z,10.53
2023-03-20T00:19:24.310Z,11.60
2023-03-20T00:21:53.887Z,11.23
2023-03-20T00:24:22.889Z,10.97
2023-03-20T00:26:52.736Z,11.10
2023-03-20T00:29:23.750Z,11.33
2023-03-20T00:31:53.958Z,10.67
2023-03-20T00:34:25.855Z,11.40
2023-03-20T00:36:54.793Z,10.50
2023-03-20T00:39:23.897Z,10.00
2023-03-20T00:41:54.402Z,7.93
2023-03-20T00:44:25.020Z,8.30
2023-03-20T00:46:56.590Z,7.73
2023-03-20T00:49:29.106Z,7.50
2023-03-20T00:51:58.035Z,7.43
2023-03-20T00:54:26.304Z,7.47
2023-03-20T00:56:58.674Z,7.83
2023-03-20T00:59:28.985Z,7.80
2023-03-20T01:01:58.706Z,8.10
2023-03-20T01:04:32.594Z,8.23
2023-03-20T01:07:00.763Z,8.33
2023-03-20T01:09:28.546Z,7.63
2023-03-20T01:11:56.366Z,7.83
2023-03-20T01:14:24.536Z,7.73
2023-03-20T01:16:52.385Z,7.43
2023-03-20T01:19:21.900Z,7.97
2023-03-20T01:21:49.648Z,7.93
2023-03-20T01:24:17.571Z,7.63
2023-03-20T01:26:46.531Z,8.30
2023-03-20T01:29:19.622Z,7.50
2023-03-20T01:31:47.639Z,8.17
2023-03-20T01:34:16.688Z,8.07
2023-03-20T01:36:51.168Z,8.17
2023-03-20T01:39:21.701Z,8.23
2023-03-20T01:41:50.987Z,7.80
2023-03-20T01:44:22.354Z,7.37
2023-03-20T01:46:55.772Z,7.53
2023-03-20T01:50:01.025Z,7.93
2023-03-20T01:52:30.299Z,7.57
2023-03-20T01:54:58.094Z,6.93
2023-03-20T01:57:26.707Z,7.43
2023-03-20T02:00:01.643Z,7.53
2023-03-20T02:02:33.454Z,7.83
2023-03-20T02:05:04.578Z,6.80
2023-03-20T02:07:36.021Z,7.80
2023-03-20T02:10:09.614Z,6.47
2023-03-20T02:12:45.384Z,7.10
2023-03-20T02:15:18.202Z,7.57
2023-03-20T02:18:01.116Z,7.50
2023-03-20T02:20:42.894Z,7.33
2023-03-20T02:23:45.588Z,6.93
2023-03-20T02:26:25.439Z,7.00
2023-03-20T02:29:18.725Z,5.93
2023-03-20T02:32:13.033Z,6.43
2023-03-20T02:34:57.939Z,6.83
2023-03-20T02:38:06.300Z,6.20
2023-03-20T02:40:43.550Z,6.67
2023-03-20T02:43:19.665Z,6.43
2023-03-20T02:45:55.653Z,6.43
2023-03-20T02:48:34.934Z,6.20
2023-03-20T02:51:11.735Z,6.17
2023-03-20T02:53:50.066Z,6.80
2023-03-20T02:56:25.172Z,6.53
2023-03-20T02:59:03.696Z,6.27
2023-03-20T03:01:37.429Z,6.03
2023-03-20T03:04:09.888Z,6.37
2023-03-20T03:06:41.034Z,6.87
2023-03-20T03:09:18.754Z,7.10
2023-03-20T03:11:50.722Z,6.77
2023-03-20T03:14:25.849Z,7.70
2023-03-20T03:16:55.482Z,6.87
2023-03-20T03:19:28.013Z,6.97
2023-03-20T03:21:56.316Z,7.10
2023-03-20T03:24:40.779Z,7.23
2023-03-20T03:27:18.253Z,7.07
2023-03-20T03:29:51.111Z,7.60
2023-03-20T03:32:29.491Z,7.37
2023-03-20T03:34:58.585Z,7.70
2023-03-20T03:37:41.407Z,8.07
2023-03-20T03:40:19.649Z,8.87
2023-03-20T03:42:57.385Z,8.37
2023-03-20T03:45:32.597Z,8.30
2023-03-20T03:48:06.283Z,10.10
2023-03-20T03:50:39.634Z,8.50
2023-03-20T03:53:12.340Z,9.43
2023-03-20T03:55:48.124Z,9.00
2023-03-20T03:58:21.461Z,10.07
2023-03-20T04:00:52.928Z,10.13
2023-03-20T04:03:24.190Z,9.47
2023-03-20T04:05:54.723Z,9.80
2023-03-20T04:08:22.608Z,9.37
2023-03-20T04:10:52.080Z,9.20
2023-03-20T04:13:19.934Z,9.90
2023-03-20T04:15:48.214Z,9.47
2023-03-20T04:18:17.650Z,9.40
2023-03-20T04:20:48.403Z,9.27
2023-03-20T04:23:17.790Z,9.23
2023-03-20T04:25:45.862Z,9.50
2023-03-20T04:28:16.599Z,10.10
2023-03-20T04:30:54.293Z,10.00
2023-03-20T04:33:34.614Z,11.40
2023-03-20T04:36:25.532Z,12.43
2023-03-20T04:38:57.464Z,12.37
2023-03-20T04:41:26.538Z,12.60
2023-03-20T04:43:58.336Z,13.53
2023-03-20T04:46:26.435Z,12.87
2023-03-20T04:48:54.220Z,13.73
2023-03-20T04:51:22.403Z,14.03
2023-03-20T04:53:52.152Z,13.57
2023-03-20T04:56:20.172Z,13.30
2023-03-20T04:58:50.283Z,15.57
2023-03-20T05:01:23.421Z,14.47
2023-03-20T05:03:52.023Z,14.60
2023-03-20T05:06:20.162Z,13.73
2023-03-20T05:08:48.159Z,13.97
2023-03-20T05:11:17.892Z,14.63
2023-03-20T05:14:01.182Z,13.73
2023-03-20T05:16:49.977Z,14.13
2023-03-20T05:19:28.546Z,13.33
2023-03-20T05:22:08.652Z,12.10
2023-03-20T05:24:54.722Z,11.97
2023-03-20T05:27:41.078Z,13.10
2023-03-20T05:30:27.728Z,11.60
2023-03-20T05:33:16.305Z,11.43
2023-03-20T05:35:54.999Z,10.80
2023-03-20T05:38:39.236Z,10.60
2023-03-20T05:41:20.368Z,10.13
2023-03-20T05:44:07.950Z,9.90
2023-03-20T05:46:54.494Z,9.07
2023-03-20T05:49:50.154Z,8.83
2023-03-20T05:52:48.230Z,8.93
2023-03-20T05:55:26.152Z,8.47
2023-03-20T05:58:04.581Z,9.00
2023-03-20T06:00:54.939Z,9.77
2023-03-20T06:03:42.863Z,10.33
2023-03-20T06:06:17.592Z,9.80
2023-03-20T06:08:50.064Z,10.90
2023-03-20T06:11:19.031Z,11.43
2023-03-20T06:13:46.937Z,11.77
2023-03-20T06:16:15.071Z,11.57
2023-03-20T06:18:42.878Z,10.70
2023-03-20T06:21:12.957Z,9.50
2023-03-20T06:23:42.768Z,8.77
2023-03-20T06:26:12.018Z,9.03
2023-03-20T06:28:57.539Z,8.40
2023-03-20T06:31:25.364Z,8.50
2023-03-20T06:33:53.156Z,8.43
2023-03-20T06:36:21.381Z,8.10
2023-03-20T06:38:56.758Z,7.50
2023-03-20T06:41:34.100Z,7.77
2023-03-20T06:44:06.623Z,8.27
2023-03-20T06:46:54.872Z,7.70
2023-03-20T06:49:23.182Z,7.83
2023-03-20T06:51:50.892Z,7.80
2023-03-20T06:54:26.660Z,7.53
2023-03-20T06:56:55.593Z,8.53
2023-03-20T06:59:23.662Z,8.70
2023-03-20T07:01:56.620Z,8.00
2023-03-20T07:04:25.404Z,7.63
2023-03-20T07:06:59.130Z,7.77
2023-03-20T07:09:28.996Z,8.53
2023-03-20T07:11:57.254Z,7.70
2023-03-20T07:14:25.587Z,8.00
2023-03-20T07:16:58.070Z,8.70
2023-03-20T07:19:26.122Z,8.20
2023-03-20T07:22:01.901Z,7.57
2023-03-20T07:24:35.541Z,8.70
2023-03-20T07:27:03.316Z,7.73
2023-03-20T07:29:32.741Z,9.17
2023-03-20T07:32:02.397Z,9.40
2023-03-20T07:34:34.906Z,8.73
2023-03-20T07:37:02.951Z,9.37
2023-03-20T07:39:32.861Z,10.27
2023-03-20T07:42:30.325Z,9.30
2023-03-20T07:45:00.435Z,8.93
2023-03-20T07:47:28.488Z,10.63
2023-03-20T07:49:56.324Z,9.37
2023-03-20T07:52:24.362Z,10.00
2023-03-20T07:54:54.076Z,10.50
2023-03-20T07:57:22.137Z,10.30
2023-03-20T07:59:51.525Z,10.87
2023-03-20T08:02:19.737Z,10.87
2023-03-20T08:04:47.622Z,10.10
2023-03-20T08:07:15.792Z,10.37
2023-03-20T08:09:43.772Z,10.47
2023-03-20T08:12:11.702Z,9.90
2023-03-20T08:14:39.865Z,9.27
2023-03-20T08:17:15.004Z,9.40
2023-03-20T08:19:44.506Z,10.00
2023-03-20T08:22:12.378Z,8.63
2023-03-20T08:24:40.429Z,7.87
2023-03-20T08:27:08.467Z,8.57
2023-03-20T08:29:36.311Z,8.27
2023-03-20T08:32:04.564Z,7.40
2023-03-20T08:34:34.370Z,7.73
2023-03-20T08:37:04.373Z,7.40
2023-03-20T08:39:33.241Z,7.20
2023-03-20T08:42:01.454Z,7.13
2023-03-20T08:44:29.567Z,6.70
2023-03-20T08:46:57.296Z,6.23
2023-03-20T08:49:25.183Z,6.37
2023-03-20T08:51:54.857Z,6.33
2023-03-20T08:54:22.805Z,5.93
2023-03-20T08:56:51.113Z,6.20
2023-03-20T08:59:20.122Z,6.23
2023-03-20T09:01:50.072Z,5.30
2023-03-20T09:04:18.403Z,5.20
2023-03-20T09:06:49.017Z,5.03
2023-03-20T09:09:20.170Z,4.83
2023-03-20T09:11:48.150Z,4.53
2023-03-20T09:14:16.179Z,3.97
2023-03-20T09:16:44.432Z,4.17
2023-03-20T09:19:12.903Z,3.50
2023-03-20T09:21:40.842Z,3.33
2023-03-20T09:24:09.024Z,3.00
2023-03-20T09:26:38.383Z,2.90
2023-03-20T09:29:06.633Z,3.57
2023-03-20T09:31:34.528Z,3.10
2023-03-20T09:34:02.533Z,2.93
2023-03-20T09:36:30.603Z,2.90
2023-03-20T09:38:58.493Z,3.20
2023-03-20T09:41:28.419Z,2.83
2023-03-20T09:44:10.294Z,2.73
2023-03-20T09:47:05.560Z,2.80
2023-03-20T09:49:46.454Z,2.90
2023-03-20T09:52:22.364Z,2.40
2023-03-20T09:54:54.744Z,1.90
2023-03-20T09:57:26.636Z,2.00
2023-03-20T09:59:58.682Z,2.00
2023-03-20T10:02:37.868Z,2.33
2023-03-20T10:05:18.566Z,2.17
2023-03-20T10:07:46.598Z,2.37
2023-03-20T10:10:15.368Z,2.57
2023-03-20T10:12:51.453Z,2.83
2023-03-20T10:15:30.019Z,2.80
2023-03-20T10:18:08.255Z,2.67
2023-03-20T10:20:41.022Z,3.07
2023-03-20T10:23:17.549Z,3.13
2023-03-20T10:25:50.970Z,3.00
2023-03-20T10:28:23.275Z,3.23
2023-03-20T10:31:06.208Z,2.60
2023-03-20T10:33:47.799Z,2.90
2023-03-20T10:36:35.947Z,2.83
2023-03-20T10:39:10.909Z,2.53
2023-03-20T10:41:41.017Z,2.47
2023-03-20T10:44:16.009Z,2.60
2023-03-20T10:46:53.039Z,2.33
2023-03-20T10:49:28.587Z,2.90
2023-03-20T10:52:00.889Z,2.20
2023-03-20T10:54:37.924Z,2.00
2023-03-20T10:57:11.526Z,2.27
2023-03-20T10:59:42.801Z,2.30
2023-03-20T11:02:13.842Z,2.30
2023-03-20T11:04:41.858Z,2.03
2023-03-20T11:07:20.855Z,2.37
2023-03-20T11:10:08.571Z,2.63
2023-03-20T11:12:38.847Z,1.93
2023-03-20T11:15:20.665Z,2.20
2023-03-20T11:17:55.698Z,1.80
2023-03-20T11:20:24.223Z,1.97
2023-03-20T11:22:58.855Z,1.57
2023-03-20T11:25:32.722Z,1.83
2023-03-20T11:28:20.534Z,1.83
2023-03-20T11:31:03.854Z,2.00
2023-03-20T11:33:37.647Z,2.17
2023-03-20T11:36:12.792Z,2.20
2023-03-20T11:38:45.964Z,2.10
2023-03-20T11:41:19.204Z,2.17
2023-03-20T11:43:47.126Z,2.10
2023-03-20T11:46:15.129Z,2.40
2023-03-20T11:48:46.612Z,3.13
2023-03-20T11:51:17.861Z,2.37
2023-03-20T11:54:01.631Z,2.60
2023-03-20T11:56:32.711Z,2.77
2023-03-20T11:59:04.567Z,3.10
2023-03-20T12:01:44.660Z,2.97
2023-03-20T12:04:16.793Z,2.40
2023-03-20T12:06:49.555Z,2.80
2023-03-20T12:09:40.933Z,2.73
2023-03-20T12:12:21.569Z,2.80
2023-03-20T12:14:58.229Z,2.40
2023-03-20T12:17:41.165Z,2.30
2023-03-20T12:20:21.546Z,2.90
2023-03-20T12:22:57.585Z,2.83
2023-03-20T12:25:27.597Z,2.60
2023-03-20T12:28:04.944Z,2.97
2023-03-20T12:30:46.438Z,2.67
2023-03-20T12:33:20.742Z,2.90
2023-03-20T12:35:53.344Z,2.50
2023-03-20T12:38:28.002Z,2.50
2023-03-20T12:40:59.554Z,3.00
2023-03-20T12:43:32.004Z,3.10
2023-03-20T12:46:09.447Z,3.10
2023-03-20T12:48:57.062Z,3.77
2023-03-20T12:51:46.412Z,3.63
2023-03-20T12:54:33.336Z,3.40
2023-03-20T12:57:14.608Z,3.43
2023-03-20T12:59:52.774Z,3.23
2023-03-20T13:02:35.444Z,3.37
2023-03-20T13:05:14.452Z,3.20
2023-03-20T13:08:00.052Z,3.60
2023-03-20T13:10:36.465Z,3.77
2023-03-20T13:13:15.755Z,3.40
2023-03-20T13:15:58.479Z,3.20
2023-03-20T13:18:37.511Z,3.43
2023-03-20T13:21:11.501Z,3.40
2023-03-20T13:23:47.811Z,2.90
2023-03-20T13:26:29.154Z,3.40
2023-03-20T13:29:03.600Z,3.10
2023-03-20T13:31:49.018Z,3.27
2023-03-20T13:34:29.925Z,2.90
2023-03-20T13:37:22.517Z,3.00
2023-03-20T13:40:01.851Z,3.30
2023-03-20T13:42:35.888Z,3.33
2023-03-20T13:45:08.439Z,3.07
2023-03-20T13:47:37.591Z,3.60
2023-03-20T13:50:33.227Z,3.33
2023-03-20T13:53:09.129Z,2.93
2023-03-20T13:55:47.059Z,3.10
2023-03-20T13:58:38.169Z,3.23
2023-03-20T14:01:12.719Z,2.87
2023-03-20T14:03:45.897Z,3.57
2023-03-20T14:06:19.019Z,3.30
2023-03-20T14:08:50.622Z,3.43
2023-03-20T14:11:35.661Z,3.13
2023-03-20T14:14:13.930Z,3.20
2023-03-20T14:16:42.364Z,3.00
2023-03-20T14:19:19.277Z,3.27
2023-03-20T14:21:48.546Z,3.37
2023-03-20T14:24:21.820Z,3.47
2023-03-20T14:26:56.533Z,3.37
2023-03-20T14:29:38.876Z,3.90
2023-03-20T14:32:24.633Z,3.10
2023-03-20T14:34:54.872Z,3.03
2023-03-20T14:37:30.558Z,3.00
2023-03-20T14:40:08.180Z,3.50
2023-03-20T14:42:49.350Z,3.50
2023-03-20T14:45:42.256Z,3.40
2023-03-20T14:48:18.131Z,3.57
2023-03-20T14:50:59.619Z,3.20
2023-03-20T14:53:29.302Z,3.67
2023-03-20T14:56:08.934Z,3.50
2023-03-20T14:58:47.553Z,3.30
2023-03-20T15:01:20.081Z,4.10
2023-03-20T15:03:51.533Z,3.60
2023-03-20T15:06:21.015Z,3.43
2023-03-20T15:08:52.743Z,3.77
2023-03-20T15:11:22.224Z,4.00
2023-03-20T15:13:53.160Z,4.17
2023-03-20T15:16:28.744Z,6.47
2023-03-20T15:18:56.940Z,5.77
2023-03-20T15:21:31.432Z,4.10
2023-03-20T15:23:59.951Z,3.70
2023-03-20T15:26:29.113Z,4.17
2023-03-20T15:29:02.512Z,4.20
2023-03-20T15:31:33.078Z,3.83
2023-03-20T15:34:04.559Z,3.70
2023-03-20T15:36:36.960Z,3.60
2023-03-20T15:39:08.270Z,3.60
2023-03-20T15:41:39.630Z,3.90
2023-03-20T15:44:22.511Z,3.97
2023-03-20T15:47:12.851Z,3.77
2023-03-20T15:49:42.801Z,4.30
2023-03-20T15:52:17.772Z,3.73
2023-03-20T15:54:45.808Z,3.87
2023-03-20T15:57:18.934Z,4.17
2023-03-20T15:59:48.586Z,3.90
2023-03-20T16:02:16.869Z,3.90
2023-03-20T16:04:48.025Z,4.27
2023-03-20T16:07:22.079Z,3.73
2023-03-20T16:09:51.631Z,4.07
2023-03-20T16:12:20.797Z,4.33
2023-03-20T16:14:52.155Z,4.33
2023-03-20T16:17:23.006Z,3.97
2023-03-20T16:19:51.723Z,4.60
2023-03-20T16:22:25.189Z,4.07
2023-03-20T16:24:55.998Z,4.20
2023-03-20T16:27:28.028Z,4.20
2023-03-20T16:29:58.099Z,4.07
2023-03-20T16:32:35.140Z,3.77
2023-03-20T16:35:06.672Z,3.97
2023-03-20T16:37:43.223Z,3.97
2023-03-20T16:40:18.060Z,3.80
2023-03-20T16:42:46.826Z,3.90
2023-03-20T16:45:23.330Z,4.20
2023-03-20T16:48:14.429Z,3.43
2023-03-20T16:50:44.390Z,3.83
2023-03-20T16:53:15.361Z,4.00
2023-03-20T16:55:46.181Z,3.93
2023-03-20T16:58:19.936Z,3.90
2023-03-20T17:00:52.703Z,3.40
2023-03-20T17:03:27.028Z,2.90
2023-03-20T17:05:57.911Z,3.20
2023-03-20T17:08:32.681Z,3.37
2023-03-20T17:11:10.393Z,3.70
2023-03-20T17:13:38.294Z,4.07
2023-03-20T17:16:08.890Z,3.70
2023-03-20T17:18:37.893Z,3.80
2023-03-20T17:21:06.385Z,3.23
2023-03-20T17:23:36.012Z,3.23
2023-03-20T17:26:04.198Z,3.40
2023-03-20T17:28:37.256Z,3.30
2023-03-20T17:31:06.361Z,3.40
2023-03-20T17:33:36.666Z,3.40
2023-03-20T17:36:04.883Z,3.10
2023-03-20T17:38:32.749Z,3.00
2023-03-20T17:41:00.556Z,3.50
2023-03-20T17:43:28.514Z,2.80
2023-03-20T17:45:56.243Z,3.03
2023-03-20T17:48:24.162Z,3.10
2023-03-20T17:50:53.533Z,2.90
2023-03-20T17:53:24.079Z,3.10
2023-03-20T17:55:52.537Z,3.60
2023-03-20T17:58:23.271Z,3.63
2023-03-20T18:00:52.033Z,3.70
2023-03-20T18:03:20.493Z,3.20
2023-03-20T18:05:50.932Z,3.53
2023-03-20T18:08:22.311Z,3.40
2023-03-20T18:10:51.691Z,3.73
2023-03-20T18:13:21.079Z,4.30
2023-03-20T18:15:49.531Z,4.03
2023-03-20T18:18:17.677Z,3.70
2023-03-20T18:20:46.963Z,3.50
2023-03-20T18:23:16.178Z,3.27
2023-03-20T18:25:45.386Z,3.93
2023-03-20T18:28:20.534Z,3.60
2023-03-20T18:30:48.938Z,3.13
2023-03-20T18:33:17.645Z,3.30
2023-03-20T18:35:45.712Z,3.40
2023-03-20T18:38:14.470Z,3.47
2023-03-20T18:40:47.100Z,3.30
2023-03-20T18:43:16.458Z,3.07
2023-03-20T18:45:44.207Z,2.93
2023-03-20T18:48:13.241Z,3.10
2023-03-20T18:50:43.074Z,2.57
2023-03-20T18:53:12.011Z,2.93
2023-03-20T18:55:39.997Z,8.70
2023-03-20T18:58:09.064Z,3.70
2023-03-20T19:00:40.648Z,3.00
2023-03-20T19:03:09.619Z,2.70
2023-03-20T19:05:37.487Z,2.70
2023-03-20T19:08:06.688Z,4.73
2023-03-20T19:10:37.182Z,3.10
2023-03-20T19:13:07.593Z,3.20
2023-03-20T19:15:37.294Z,2.97
2023-03-20T19:18:09.091Z,3.13
2023-03-20T19:20:38.431Z,3.07
2023-03-20T19:23:08.109Z,3.60
2023-03-20T19:25:37.525Z,3.33
2023-03-20T19:28:07.771Z,3.00
2023-03-20T19:30:38.522Z,3.13
2023-03-20T19:33:08.394Z,3.37
2023-03-20T19:36:01.805Z,3.23
2023-03-20T19:38:24.869Z,3.17
2023-03-20T19:40:54.165Z,3.13
2023-03-20T19:43:22.470Z,3.40
2023-03-20T19:45:55.400Z,3.30
2023-03-20T19:48:27.432Z,3.07
2023-03-20T19:50:57.529Z,3.30
2023-03-20T19:53:29.268Z,2.97
2023-03-20T19:55:57.964Z,3.47
2023-03-20T19:58:25.735Z,3.70
2023-03-20T20:01:12.289Z,3.60
2023-03-20T20:03:43.027Z,3.53
2023-03-20T20:06:11.043Z,3.93
2023-03-20T20:08:47.825Z,4.00
2023-03-20T20:11:17.557Z,3.30
2023-03-20T20:14:07.067Z,3.57
2023-03-20T20:16:34.645Z,3.57
2023-03-20T20:19:04.367Z,3.00
2023-03-20T20:22:17.074Z,3.53
2023-03-20T20:24:20.274Z,3.30
2023-03-20T20:26:54.818Z,3.57
2023-03-20T20:29:24.485Z,3.43
2023-03-20T20:31:52.628Z,3.73
2023-03-20T20:37:51.758Z,3.10
2023-03-20T20:39:58.032Z,3.30
2023-03-20T20:42:26.376Z,3.40
2023-03-20T20:44:54.597Z,3.53
2023-03-20T20:47:22.601Z,3.40
2023-03-20T20:49:51.915Z,3.77
2023-03-20T20:52:19.746Z,3.23
2023-03-20T20:54:48.366Z,3.50
2023-03-20T20:57:16.366Z,3.83
2023-03-20T20:59:44.335Z,3.37
2023-03-20T21:02:12.846Z,3.60
2023-03-20T21:04:42.003Z,3.67
2023-03-20T21:07:13.453Z,3.60
2023-03-20T21:09:42.225Z,3.60
2023-03-20T21:12:22.709Z,4.20
2023-03-20T21:14:58.902Z,4.00
2023-03-20T21:17:27.845Z,4.00
2023-03-20T21:19:56.420Z,4.80
2023-03-20T21:22:25.790Z,6.03
2023-03-20T21:25:03.616Z,5.40
2023-03-20T21:27:39.222Z,5.83
2023-03-20T21:30:08.034Z,6.37
2023-03-20T21:32:36.866Z,6.63
2023-03-20T21:35:07.507Z,6.80
2023-03-20T21:40:25.841Z,7.00
2023-03-20T21:42:53.573Z,6.70
2023-03-20T21:49:06.360Z,6.43
2023-03-20T21:51:50.129Z,7.13
2023-03-20T21:54:37.229Z,6.50
2023-03-20T21:57:10.938Z,6.80
2023-03-20T22:00:01.134Z,6.07
2023-03-20T22:02:21.389Z,6.57
2023-03-20T22:05:41.874Z,6.17
2023-03-20T22:08:19.464Z,5.70
2023-03-20T22:20:03.566Z,6.60
2023-03-20T22:22:31.949Z,7.03
2023-03-20T22:25:23.169Z,6.63
2023-03-20T22:28:06.989Z,7.10
2023-03-20T22:36:38.638Z,6.60
2023-03-20T22:42:13.802Z,7.13
2023-03-20T22:47:08.453Z,6.83
2023-03-20T22:49:36.220Z,6.37
2023-03-20T22:52:22.568Z,7.37
2023-03-20T22:54:50.794Z,7.43
2023-03-20T22:57:18.560Z,7.40
2023-03-20T22:59:47.752Z,7.07
2023-03-20T23:02:15.588Z,7.90
2023-03-20T23:04:43.374Z,7.00
2023-03-20T23:07:11.125Z,7.10
2023-03-20T23:09:38.915Z,6.57
2023-03-20T23:12:07.091Z,7.10
2023-03-20T23:14:45.498Z,7.50
2023-03-20T23:17:15.676Z,7.10
2023-03-20T23:19:49.054Z,6.90
2023-03-20T23:22:20.435Z,6.80
2023-03-20T23:24:48.393Z,7.10
2023-03-20T23:27:17.294Z,7.13
2023-03-20T23:29:45.176Z,7.53
2023-03-20T23:32:13.141Z,6.77
2023-03-20T23:34:42.592Z,6.63
2023-03-20T23:37:10.535Z,6.10
2023-03-20T23:39:38.293Z,6.30
2023-03-20T23:42:17.346Z,6.77
2023-03-20T23:44:56.397Z,6.40
2023-03-20T23:47:30.040Z,5.43
2023-03-20T23:50:06.440Z,5.60
2023-03-20T23:52:38.385Z,5.67
2023-03-20T23:55:09.203Z,5.53
2023-03-20T23:57:36.936Z,5.20
